createdAt,value
2022-09-24T00:02:21.455Z,41.03
2022-09-24T00:04:49.571Z,41.30
2022-09-24T00:07:17.697Z,41.83
2022-09-24T00:09:45.817Z,42.93
2022-09-24T00:12:15.294Z,43.50
2022-09-24T00:14:43.694Z,42.87
2022-09-24T00:17:11.887Z,43.77
2022-09-24T00:19:40.363Z,44.23
2022-09-24T00:22:08.497Z,46.17
2022-09-24T00:24:53.979Z,45.57
2022-09-24T00:27:23.439Z,43.87
2022-09-24T00:29:51.620Z,47.50
2022-09-24T00:32:20.009Z,46.67
2022-09-24T00:34:48.132Z,45.33
2022-09-24T00:37:16.254Z,45.70
2022-09-24T00:39:45.516Z,46.23
2022-09-24T00:42:14.311Z,47.00
2022-09-24T00:44:56.298Z,47.77
2022-09-24T00:47:32.351Z,46.60
2022-09-24T00:50:09.716Z,47.50
2022-09-24T00:52:42.827Z,46.93
2022-09-24T00:55:12.066Z,48.83
2022-09-24T00:57:41.250Z,48.17
2022-09-24T01:00:13.190Z,50.27
2022-09-24T01:02:46.295Z,53.30
2022-09-24T01:05:15.920Z,52.27
2022-09-24T01:07:46.912Z,52.77
2022-09-24T01:10:36.099Z,52.93
2022-09-24T01:13:14.984Z,53.97
2022-09-24T01:15:50.382Z,54.40
2022-09-24T01:18:29.758Z,52.77
2022-09-24T01:21:30.274Z,54.30
2022-09-24T01:24:26.028Z,56.30
2022-09-24T01:27:03.887Z,55.43
2022-09-24T01:29:44.021Z,57.43
2022-09-24T01:32:20.166Z,58.57
2022-09-24T01:34:54.864Z,56.47
2022-09-24T01:37:27.018Z,52.67
2022-09-24T01:39:57.615Z,51.50
2022-09-24T01:42:30.455Z,52.40
2022-09-24T01:45:02.607Z,54.83
2022-09-24T01:47:35.342Z,53.67
2022-09-24T01:50:05.803Z,53.57
2022-09-24T01:52:42.381Z,54.60
2022-09-24T01:55:15.926Z,55.40
2022-09-24T01:57:49.810Z,54.47
2022-09-24T02:00:21.999Z,56.10
2022-09-24T02:02:57.429Z,54.10
2022-09-24T02:05:32.514Z,56.10
2022-09-24T02:08:08.477Z,56.63
2022-09-24T02:10:46.306Z,55.80
2022-09-24T02:13:17.610Z,56.70
2022-09-24T02:15:51.996Z,56.93
2022-09-24T02:18:26.937Z,56.47
2022-09-24T02:20:56.434Z,57.67
2022-09-24T02:23:27.252Z,59.37
2022-09-24T02:26:02.006Z,57.73
2022-09-24T02:28:30.841Z,56.60
2022-09-24T02:31:06.541Z,57.97
2022-09-24T02:33:55.451Z,59.27
2022-09-24T02:36:24.990Z,55.13
2022-09-24T02:38:53.322Z,56.53
2022-09-24T02:41:23.957Z,68.00
2022-09-24T02:43:52.472Z,64.93
2022-09-24T02:46:22.131Z,67.13
2022-09-24T02:48:50.612Z,66.67
2022-09-24T02:51:18.748Z,65.30
2022-09-24T02:53:46.937Z,66.20
2022-09-24T02:56:15.038Z,69.00
2022-09-24T02:58:43.195Z,66.50
2022-09-24T03:01:12.195Z,67.80
2022-09-24T03:03:41.765Z,66.07
2022-09-24T03:06:10.811Z,68.17
2022-09-24T03:08:39.229Z,67.50
2022-09-24T03:11:07.478Z,69.00
2022-09-24T03:13:35.774Z,66.83
2022-09-24T03:16:04.198Z,65.77
2022-09-24T03:18:32.433Z,65.20
2022-09-24T03:21:04.487Z,65.97
2022-09-24T03:23:33.020Z,64.17
2022-09-24T03:26:01.266Z,63.13
2022-09-24T03:28:30.039Z,64.73
2022-09-24T03:31:00.197Z,66.00
2022-09-24T03:33:30.588Z,66.30
2022-09-24T03:36:01.743Z,63.97
2022-09-24T03:38:30.692Z,65.87
2022-09-24T03:40:59.382Z,66.03
2022-09-24T03:43:28.104Z,65.57
2022-09-24T03:45:56.798Z,65.87
2022-09-24T03:48:26.227Z,61.83
2022-09-24T03:50:55.138Z,60.20
2022-09-24T03:53:24.821Z,65.93
2022-09-24T03:55:57.681Z,67.10
2022-09-24T03:58:26.761Z,63.53
2022-09-24T04:00:55.436Z,63.60
2022-09-24T04:03:24.053Z,66.43
2022-09-24T04:05:52.541Z,66.53
2022-09-24T04:08:21.078Z,67.77
2022-09-24T04:10:52.307Z,63.83
2022-09-24T04:13:21.360Z,64.23
2022-09-24T04:15:51.285Z,67.00
2022-09-24T04:18:19.792Z,63.07
2022-09-24T04:20:50.999Z,65.70
2022-09-24T04:23:19.761Z,64.87
2022-09-24T04:25:47.983Z,62.97
2022-09-24T04:28:17.556Z,64.13
2022-09-24T04:30:45.810Z,60.63
2022-09-24T04:33:15.347Z,70.47
2022-09-24T04:35:43.858Z,70.93
2022-09-24T04:38:12.143Z,68.73
2022-09-24T04:40:40.914Z,70.53
2022-09-24T04:43:09.229Z,74.20
2022-09-24T04:45:39.987Z,68.50
2022-09-24T04:48:08.231Z,74.93
2022-09-24T04:50:37.712Z,72.63
2022-09-24T04:53:08.058Z,72.77
2022-09-24T04:55:37.087Z,74.03
2022-09-24T04:58:05.207Z,76.23
2022-09-24T05:00:33.947Z,75.03
2022-09-24T05:03:04.662Z,63.97
2022-09-24T05:05:33.973Z,60.03
2022-09-24T05:08:02.661Z,68.50
2022-09-24T05:10:33.409Z,60.53
2022-09-24T05:13:02.688Z,64.70
2022-09-24T05:15:30.970Z,64.43
2022-09-24T05:17:59.545Z,63.83
2022-09-24T05:20:29.141Z,64.20
2022-09-24T05:22:57.359Z,64.30
2022-09-24T05:25:25.703Z,64.93
2022-09-24T05:27:55.003Z,60.63
2022-09-24T05:30:26.214Z,63.10
2022-09-24T05:32:54.353Z,61.83
2022-09-24T05:35:24.603Z,64.97
2022-09-24T05:37:54.243Z,63.23
2022-09-24T05:40:40.937Z,61.20
2022-09-24T05:43:09.279Z,62.43
2022-09-24T05:45:37.677Z,62.70
2022-09-24T05:48:05.903Z,61.57
2022-09-24T05:50:34.836Z,60.20
2022-09-24T05:53:06.130Z,62.13
2022-09-24T05:55:34.613Z,61.57
2022-09-24T05:58:07.273Z,61.03
2022-09-24T06:00:36.733Z,58.63
2022-09-24T06:03:12.936Z,59.30
2022-09-24T06:05:46.074Z,58.80
2022-09-24T06:08:17.079Z,60.63
2022-09-24T06:10:47.150Z,56.40
2022-09-24T06:13:21.174Z,57.63
2022-09-24T06:15:49.404Z,56.97
2022-09-24T06:18:17.672Z,55.33
2022-09-24T06:20:46.974Z,54.57
2022-09-24T06:23:16.502Z,57.13
2022-09-24T06:25:44.646Z,49.83
2022-09-24T06:28:12.731Z,48.70
2022-09-24T06:30:41.385Z,46.33
2022-09-24T06:33:12.390Z,46.90
2022-09-24T06:35:43.477Z,40.70
2022-09-24T06:38:14.750Z,38.60
2022-09-24T06:40:47.168Z,36.70
2022-09-24T06:43:18.193Z,38.43
2022-09-24T06:45:47.005Z,35.40
2022-09-24T06:48:15.957Z,30.77
2022-09-24T06:50:47.698Z,24.93
2022-09-24T06:53:17.314Z,22.50
2022-09-24T06:55:47.460Z,19.23
2022-09-24T06:58:19.403Z,15.73
2022-09-24T07:00:54.403Z,12.93
2022-09-24T07:03:23.739Z,9.73
2022-09-24T07:05:52.220Z,6.33
2022-09-24T07:08:20.552Z,5.10
2022-09-24T07:10:52.621Z,4.10
2022-09-24T07:13:22.428Z,3.20
2022-09-24T07:15:52.388Z,3.53
2022-09-24T07:18:21.698Z,3.30
2022-09-24T07:20:54.518Z,2.53
2022-09-24T07:23:23.579Z,2.43
2022-09-24T07:25:57.996Z,2.90
2022-09-24T07:28:26.907Z,2.60
2022-09-24T07:31:00.437Z,3.13
2022-09-24T07:33:29.297Z,2.80
2022-09-24T07:35:57.666Z,2.57
2022-09-24T07:38:29.623Z,2.63
2022-09-24T07:41:00.484Z,2.70
2022-09-24T07:43:29.196Z,2.40
2022-09-24T07:45:58.306Z,2.40
2022-09-24T07:48:26.918Z,2.50
2022-09-24T07:50:55.997Z,2.70
2022-09-24T07:53:24.759Z,3.67
2022-09-24T07:55:53.132Z,2.53
2022-09-24T07:58:24.947Z,2.80
2022-09-24T08:00:53.424Z,2.90
2022-09-24T08:03:22.780Z,3.27
2022-09-24T08:05:52.051Z,3.43
2022-09-24T08:08:20.793Z,3.37
2022-09-24T08:10:49.385Z,3.40
2022-09-24T08:13:17.902Z,3.40
2022-09-24T08:15:47.689Z,2.93
2022-09-24T08:18:16.621Z,2.53
2022-09-24T08:20:45.026Z,3.53
2022-09-24T08:23:13.404Z,3.50
2022-09-24T08:25:41.735Z,2.90
2022-09-24T08:28:12.146Z,2.90
2022-09-24T08:30:41.503Z,2.87
2022-09-24T08:33:13.269Z,2.70
2022-09-24T08:35:41.623Z,2.87
2022-09-24T08:38:10.517Z,3.10
2022-09-24T08:40:44.524Z,2.17
2022-09-24T08:43:29.210Z,3.30
2022-09-24T08:46:22.991Z,3.23
2022-09-24T08:48:56.405Z,2.80
2022-09-24T08:51:24.823Z,3.17
2022-09-24T08:54:00.027Z,2.83
2022-09-24T08:56:32.257Z,2.90
2022-09-24T08:59:03.418Z,3.47
2022-09-24T09:01:41.033Z,2.80
2022-09-24T09:04:27.655Z,3.00
2022-09-24T09:07:12.434Z,2.87
2022-09-24T09:09:48.350Z,3.17
2022-09-24T09:12:22.547Z,2.77
2022-09-24T09:14:57.340Z,2.70
2022-09-24T09:17:38.011Z,2.73
2022-09-24T09:20:17.510Z,8.23
2022-09-24T09:22:49.664Z,5.47
2022-09-24T09:25:25.480Z,3.43
2022-09-24T09:28:01.977Z,2.50
2022-09-24T09:30:43.466Z,2.43
2022-09-24T09:33:28.484Z,1.97
2022-09-24T09:36:06.230Z,1.90
2022-09-24T09:38:42.811Z,2.30
2022-09-24T09:41:22.203Z,2.13
2022-09-24T09:43:50.847Z,2.30
2022-09-24T09:46:27.378Z,3.50
2022-09-24T09:49:01.525Z,2.03
2022-09-24T09:51:39.481Z,2.60
2022-09-24T09:54:07.931Z,2.33
2022-09-24T09:56:43.606Z,2.00
2022-09-24T09:59:25.784Z,2.20
2022-09-24T10:01:57.704Z,2.43
2022-09-24T10:04:37.341Z,1.97
2022-09-24T10:07:10.223Z,2.50
2022-09-24T10:09:39.234Z,2.87
2022-09-24T10:12:17.435Z,2.33
2022-09-24T10:14:46.365Z,3.40
2022-09-24T10:17:19.533Z,2.70
2022-09-24T10:19:50.934Z,2.20
2022-09-24T10:22:25.802Z,2.40
2022-09-24T10:24:55.984Z,1.90
2022-09-24T10:27:34.098Z,2.10
2022-09-24T10:30:23.727Z,2.70
2022-09-24T10:32:59.010Z,1.97
2022-09-24T10:35:30.878Z,2.10
2022-09-24T10:38:02.211Z,2.00
2022-09-24T10:40:33.054Z,2.27
2022-09-24T10:43:03.467Z,2.57
2022-09-24T10:46:01.538Z,2.00
2022-09-24T10:48:37.207Z,4.63
2022-09-24T10:51:17.822Z,2.60
2022-09-24T10:54:00.952Z,2.40
2022-09-24T10:56:39.890Z,2.23
2022-09-24T10:59:46.449Z,2.13
2022-09-24T11:02:48.612Z,1.53
2022-09-24T11:05:23.028Z,1.33
2022-09-24T11:08:08.528Z,1.70
2022-09-24T11:11:11.434Z,1.50
2022-09-24T11:13:51.626Z,1.80
2022-09-24T11:16:44.820Z,1.60
2022-09-24T11:19:33.253Z,1.40
2022-09-24T11:22:12.370Z,2.80
2022-09-24T11:24:57.351Z,2.30
2022-09-24T11:27:43.022Z,1.40
2022-09-24T11:30:15.258Z,1.50
2022-09-24T11:33:05.406Z,1.60
2022-09-24T11:36:22.920Z,1.93
2022-09-24T11:39:15.063Z,1.73
2022-09-24T11:41:55.391Z,1.60
2022-09-24T11:45:25.136Z,1.50
2022-09-24T11:48:19.743Z,2.10
2022-09-24T11:51:02.668Z,1.57
2022-09-24T11:53:41.173Z,1.80
2022-09-24T11:56:18.620Z,1.83
2022-09-24T11:58:53.589Z,1.60
2022-09-24T12:01:28.713Z,1.83
2022-09-24T12:04:03.557Z,1.23
2022-09-24T12:06:39.413Z,1.10
2022-09-24T12:09:19.224Z,1.50
2022-09-24T12:11:52.305Z,1.13
2022-09-24T12:14:25.206Z,1.60
2022-09-24T12:17:02.036Z,1.67
2022-09-24T12:19:37.864Z,1.20
2022-09-24T12:22:07.155Z,1.57
2022-09-24T12:24:40.418Z,2.00
2022-09-24T12:27:15.695Z,1.73
2022-09-24T12:30:10.234Z,1.43
2022-09-24T12:32:57.811Z,1.40
2022-09-24T12:35:43.845Z,1.33
2022-09-24T12:38:16.775Z,1.10
2022-09-24T12:41:18.775Z,1.47
2022-09-24T12:43:52.455Z,2.10
2022-09-24T12:46:24.237Z,1.83
2022-09-24T12:48:55.431Z,1.60
2022-09-24T12:51:24.339Z,1.90
2022-09-24T12:54:09.147Z,1.77
2022-09-24T12:56:37.634Z,2.40
2022-09-24T12:59:06.008Z,2.00
2022-09-24T13:01:35.764Z,2.23
2022-09-24T13:04:30.415Z,2.40
2022-09-24T13:06:58.831Z,2.67
2022-09-24T13:09:37.307Z,2.60
2022-09-24T13:12:21.742Z,2.50
2022-09-24T13:14:57.974Z,2.33
2022-09-24T13:17:26.444Z,2.87
2022-09-24T13:20:01.069Z,2.83
2022-09-24T13:22:32.373Z,3.23
2022-09-24T13:25:23.867Z,2.90
2022-09-24T13:28:02.763Z,3.03
2022-09-24T13:30:39.265Z,3.07
2022-09-24T13:33:24.055Z,3.80
2022-09-24T13:36:12.755Z,3.33
2022-09-24T13:38:50.414Z,3.80
2022-09-24T13:41:34.184Z,3.40
2022-09-24T13:44:06.944Z,3.30
2022-09-24T13:46:37.985Z,3.17
2022-09-24T13:49:12.905Z,3.33
2022-09-24T13:51:45.327Z,3.43
2022-09-24T13:54:22.862Z,3.87
2022-09-24T13:57:00.839Z,3.20
2022-09-24T13:59:30.920Z,4.33
2022-09-24T14:01:59.523Z,3.03
2022-09-24T14:04:28.092Z,2.70
2022-09-24T14:06:59.844Z,2.97
2022-09-24T14:09:31.576Z,2.40
2022-09-24T14:12:03.319Z,2.97
2022-09-24T14:14:35.771Z,2.10
2022-09-24T14:17:15.101Z,2.60
2022-09-24T14:19:44.059Z,2.17
2022-09-24T14:22:21.445Z,2.27
2022-09-24T14:24:56.323Z,2.07
2022-09-24T14:27:27.627Z,2.20
2022-09-24T14:29:59.406Z,2.23
2022-09-24T14:32:32.270Z,2.70
2022-09-24T14:35:03.076Z,2.70
2022-09-24T14:37:37.338Z,2.40
2022-09-24T14:40:14.456Z,2.23
2022-09-24T14:42:48.185Z,2.67
2022-09-24T14:45:22.706Z,6.13
2022-09-24T14:48:02.406Z,3.30
2022-09-24T14:50:39.882Z,6.50
2022-09-24T14:53:26.407Z,3.13
2022-09-24T14:55:55.319Z,2.57
2022-09-24T14:58:26.233Z,2.47
2022-09-24T15:00:57.532Z,2.30
2022-09-24T15:03:33.725Z,2.10
2022-09-24T15:06:19.618Z,2.07
2022-09-24T15:08:59.107Z,2.40
2022-09-24T15:11:30.212Z,2.10
2022-09-24T15:14:04.792Z,2.53
2022-09-24T15:16:35.970Z,2.10
2022-09-24T15:19:19.564Z,3.00
2022-09-24T15:21:49.730Z,2.30
2022-09-24T15:24:21.598Z,2.40
2022-09-24T15:27:02.551Z,2.60
2022-09-24T15:29:31.242Z,2.60
2022-09-24T15:31:59.956Z,2.87
2022-09-24T15:34:29.061Z,4.57
2022-09-24T15:37:00.632Z,2.40
2022-09-24T15:39:32.071Z,2.03
2022-09-24T15:42:00.925Z,1.80
2022-09-24T15:44:33.827Z,2.43
2022-09-24T15:47:02.665Z,2.30
2022-09-24T15:49:31.380Z,2.37
2022-09-24T15:52:04.310Z,2.80
2022-09-24T15:54:34.192Z,2.83
2022-09-24T15:57:02.840Z,2.87
2022-09-24T15:59:31.556Z,2.17
2022-09-24T16:02:03.684Z,3.10
2022-09-24T16:04:32.358Z,2.33
2022-09-24T16:07:00.760Z,2.27
2022-09-24T16:09:29.152Z,1.80
2022-09-24T16:11:58.880Z,2.53
2022-09-24T16:14:27.286Z,2.10
2022-09-24T16:16:56.341Z,2.30
2022-09-24T16:19:25.121Z,2.00
2022-09-24T16:21:53.538Z,2.30
2022-09-24T16:24:22.196Z,1.70
2022-09-24T16:26:50.494Z,2.07
2022-09-24T16:29:20.730Z,1.80
2022-09-24T16:31:49.593Z,1.60
2022-09-24T16:34:18.090Z,1.43
2022-09-24T16:36:46.682Z,1.90
2022-09-24T16:39:16.032Z,1.50
2022-09-24T16:41:44.969Z,1.43
2022-09-24T16:44:15.051Z,1.90
2022-09-24T16:46:45.575Z,2.10
2022-09-24T16:49:14.138Z,1.93
2022-09-24T16:51:42.503Z,2.93
2022-09-24T16:54:12.410Z,2.47
2022-09-24T16:56:41.316Z,1.70
2022-09-24T16:59:11.865Z,1.80
2022-09-24T17:01:42.594Z,2.50
2022-09-24T17:04:13.455Z,2.27
2022-09-24T17:06:44.558Z,2.27
2022-09-24T17:09:30.480Z,2.40
2022-09-24T17:11:59.054Z,2.00
2022-09-24T17:14:27.530Z,2.83
2022-09-24T17:16:59.884Z,2.77
2022-09-24T17:19:29.662Z,2.83
2022-09-24T17:22:00.143Z,3.90
2022-09-24T17:24:28.788Z,3.50
2022-09-24T17:26:57.713Z,3.47
2022-09-24T17:29:31.106Z,4.20
2022-09-24T17:32:00.042Z,2.90
2022-09-24T17:34:29.863Z,2.70
2022-09-24T17:36:59.754Z,3.23
2022-09-24T17:39:30.759Z,3.50
2022-09-24T17:41:59.197Z,3.80
2022-09-24T17:44:27.531Z,4.57
2022-09-24T17:46:56.133Z,4.07
2022-09-24T17:49:24.731Z,3.80
2022-09-24T17:51:54.606Z,3.70
2022-09-24T17:54:24.232Z,3.23
2022-09-24T17:56:52.561Z,3.90
2022-09-24T17:59:26.260Z,3.70
2022-09-24T18:01:55.559Z,3.40
2022-09-24T18:04:25.748Z,3.50
2022-09-24T18:06:55.571Z,3.37
2022-09-24T18:09:23.910Z,3.43
2022-09-24T18:11:53.682Z,3.83
2022-09-24T18:14:23.872Z,3.53
2022-09-24T18:16:53.486Z,4.37
2022-09-24T18:19:22.709Z,4.10
2022-09-24T18:21:51.046Z,3.97
2022-09-24T18:24:20.810Z,3.60
2022-09-24T18:26:51.814Z,3.40
2022-09-24T18:29:21.476Z,3.73
2022-09-24T18:31:51.396Z,4.50
2022-09-24T18:34:19.867Z,3.90
2022-09-24T18:36:48.062Z,3.07
2022-09-24T18:39:23.850Z,3.20
2022-09-24T18:41:54.722Z,3.00
2022-09-24T18:44:23.252Z,3.37
2022-09-24T18:46:51.490Z,3.40
2022-09-24T18:49:21.696Z,2.73
2022-09-24T18:51:52.012Z,3.40
2022-09-24T18:54:20.291Z,3.10
2022-09-24T18:56:48.742Z,2.93
2022-09-24T18:59:20.770Z,3.00
2022-09-24T19:01:50.756Z,2.93
2022-09-24T19:04:20.054Z,3.20
2022-09-24T19:06:49.857Z,2.70
2022-09-24T19:09:20.232Z,3.30
2022-09-24T19:11:50.224Z,2.93
2022-09-24T19:14:19.808Z,2.60
2022-09-24T19:16:48.343Z,2.43
2022-09-24T19:19:16.907Z,2.90
2022-09-24T19:21:45.253Z,2.67
2022-09-24T19:24:13.471Z,3.20
2022-09-24T19:26:41.589Z,4.07
2022-09-24T19:29:09.806Z,3.57
2022-09-24T19:31:41.904Z,3.50
2022-09-24T19:34:14.216Z,3.00
2022-09-24T19:36:44.880Z,2.80
2022-09-24T19:39:15.552Z,3.43
2022-09-24T19:41:44.389Z,3.33
2022-09-24T19:44:12.864Z,3.33
2022-09-24T19:46:42.763Z,2.93
2022-09-24T19:49:11.023Z,2.70
2022-09-24T19:51:40.452Z,3.07
2022-09-24T19:54:14.104Z,2.90
2022-09-24T19:56:42.762Z,2.67
2022-09-24T19:59:14.865Z,3.10
2022-09-24T20:01:48.798Z,3.10
2022-09-24T20:04:17.419Z,2.73
2022-09-24T20:06:45.642Z,2.63
2022-09-24T20:09:13.987Z,4.50
2022-09-24T20:11:42.580Z,3.60
2022-09-24T20:14:11.369Z,4.43
2022-09-24T20:16:42.651Z,3.60
2022-09-24T20:19:15.847Z,3.23
2022-09-24T20:21:44.214Z,2.83
2022-09-24T20:24:13.599Z,3.00
2022-09-24T20:26:59.178Z,2.90
2022-09-24T20:29:27.513Z,3.00
2022-09-24T20:31:56.865Z,3.13
2022-09-24T20:34:33.884Z,3.17
2022-09-24T20:37:03.307Z,4.10
2022-09-24T20:39:32.559Z,3.17
2022-09-24T20:42:02.114Z,3.57
2022-09-24T20:44:30.705Z,2.97
2022-09-24T20:46:59.094Z,3.30
2022-09-24T20:49:29.760Z,3.03
2022-09-24T20:51:58.332Z,2.97
2022-09-24T20:54:28.596Z,3.27
2022-09-24T20:56:57.137Z,3.63
2022-09-24T20:59:26.562Z,4.13
2022-09-24T21:01:55.538Z,4.70
2022-09-24T21:04:24.773Z,4.03
2022-09-24T21:06:55.515Z,4.07
2022-09-24T21:09:23.808Z,4.40
2022-09-24T21:11:54.713Z,3.33
2022-09-24T21:14:23.575Z,3.20
2022-09-24T21:16:54.162Z,3.07
2022-09-24T21:19:22.614Z,2.93
2022-09-24T21:21:52.087Z,2.43
2022-09-24T21:24:25.212Z,2.87
2022-09-24T21:27:00.073Z,2.80
2022-09-24T21:29:28.292Z,2.80
2022-09-24T21:31:56.469Z,3.10
2022-09-24T21:34:24.619Z,2.70
2022-09-24T21:36:53.597Z,2.90
2022-09-24T21:39:24.522Z,2.67
2022-09-24T21:41:54.878Z,2.57
2022-09-24T21:44:23.057Z,3.30
2022-09-24T21:46:52.183Z,2.97
2022-09-24T21:49:21.288Z,5.00
2022-09-24T21:51:50.637Z,4.77
2022-09-24T21:54:19.725Z,5.93
2022-09-24T21:56:49.671Z,3.40
2022-09-24T21:59:40.690Z,3.20
2022-09-24T22:02:10.199Z,3.37
2022-09-24T22:04:39.115Z,3.37
2022-09-24T22:07:07.649Z,3.23
2022-09-24T22:09:35.950Z,3.10
2022-09-24T22:12:06.677Z,7.60
2022-09-24T22:14:35.099Z,6.10
2022-09-24T22:17:03.865Z,4.97
2022-09-24T22:19:32.279Z,4.67
2022-09-24T22:22:00.511Z,3.67
2022-09-24T22:24:28.913Z,3.30
2022-09-24T22:26:57.619Z,4.53
2022-09-24T22:29:27.162Z,4.20
2022-09-24T22:31:55.405Z,3.83
2022-09-24T22:34:41.169Z,16.20
2022-09-24T22:37:09.309Z,7.93
2022-09-24T22:39:37.422Z,4.90
2022-09-24T22:42:06.227Z,6.97
2022-09-24T22:44:35.739Z,5.47
2022-09-24T22:47:03.813Z,4.73
2022-09-24T22:49:32.640Z,4.53
2022-09-24T22:52:00.879Z,6.03
2022-09-24T22:54:28.980Z,3.63
2022-09-24T22:56:57.054Z,3.90
2022-09-24T22:59:25.140Z,4.47
2022-09-24T23:01:54.835Z,5.40
2022-09-24T23:04:23.735Z,5.37
2022-09-24T23:06:51.842Z,5.10
2022-09-24T23:09:20.656Z,4.80
2022-09-24T23:11:49.951Z,5.17
2022-09-24T23:14:18.270Z,5.10
2022-09-24T23:16:46.811Z,4.80
2022-09-24T23:19:19.692Z,4.40
2022-09-24T23:21:48.162Z,4.40
2022-09-24T23:24:18.940Z,4.80
2022-09-24T23:26:47.596Z,18.77
2022-09-24T23:29:16.713Z,7.33
2022-09-24T23:31:44.818Z,7.23
2022-09-24T23:34:14.671Z,5.90
2022-09-24T23:36:46.115Z,4.67
2022-09-24T23:39:14.648Z,4.70
2022-09-24T23:41:42.872Z,3.60
2022-09-24T23:44:11.328Z,3.97
2022-09-24T23:46:39.603Z,3.83
2022-09-24T23:49:07.739Z,3.87
2022-09-24T23:51:36.060Z,4.00
2022-09-24T23:54:06.259Z,4.00
2022-09-24T23:56:34.427Z,4.43
2022-09-24T23:59:02.544Z,4.53
